Time;durP1;ratioP1;P1;durP2;ratioP2;P2;SDS_P1;SDS_P2;PMS_P1;PMS_P2;Temp;Humidity;BMP_temperature;BMP_pressure;BME280_temperature;BME280_humidity;BME280_pressure;Samples;Min_cycle;Max_cycle;Signal;HPM_P1;HPM_P2
2022/07/24 00:01:35;;;;;;;7.78;6.55;;;;;;;20.72;100.00;100591.44;1789904;79;20956;-80
2022/07/24 00:04:04;;;;;;;8.55;6.83;;;;;;;20.71;100.00;100597.65;1781323;79;21032;-81
2022/07/24 00:06:31;;;;;;;11.45;6.90;;;;;;;20.66;100.00;100599.36;1790255;79;20947;-81
2022/07/24 00:09:00;;;;;;;8.75;6.60;;;;;;;20.53;100.00;100602.62;1780594;79;21005;-80
2022/07/24 00:11:28;;;;;;;9.13;6.92;;;;;;;20.53;100.00;100594.29;1786749;79;21012;-80
2022/07/24 00:13:57;;;;;;;9.25;7.35;;;;;;;20.61;100.00;100591.88;1808279;79;21031;-80
2022/07/24 00:16:25;;;;;;;9.85;7.15;;;;;;;20.56;100.00;100586.66;1808842;79;20972;-80
2022/07/24 00:18:54;;;;;;;10.48;7.25;;;;;;;20.55;100.00;100584.52;1804066;79;21066;-80
2022/07/24 00:21:23;;;;;;;10.80;7.10;;;;;;;20.54;100.00;100596.41;1807898;79;20984;-80
2022/07/24 00:23:51;;;;;;;10.15;7.25;;;;;;;20.59;100.00;100591.18;1805893;79;21683;-79
2022/07/24 00:26:19;;;;;;;7.90;6.92;;;;;;;20.60;100.00;100591.55;1807779;79;21399;-80
2022/07/24 00:28:48;;;;;;;7.80;7.00;;;;;;;20.65;100.00;100595.07;1807942;79;21427;-81
2022/07/24 00:31:16;;;;;;;9.20;6.95;;;;;;;20.43;100.00;100592.59;1808954;79;21694;-80
2022/07/24 00:33:44;;;;;;;7.83;6.40;;;;;;;20.38;100.00;100593.80;1807408;79;21007;-79
2022/07/24 00:36:13;;;;;;;8.18;6.10;;;;;;;20.36;100.00;100593.11;1803282;79;20976;-81
2022/07/24 00:38:40;;;;;;;7.87;6.12;;;;;;;20.39;100.00;100605.09;1808769;79;21078;-81
2022/07/24 00:41:07;;;;;;;6.22;5.60;;;;;;;20.35;100.00;100597.15;1804006;79;21047;-78
2022/07/24 00:43:36;;;;;;;6.10;5.47;;;;;;;20.34;100.00;100598.94;1803416;79;20980;-80
2022/07/24 00:46:04;;;;;;;6.78;5.67;;;;;;;20.34;100.00;100588.48;1781473;79;20963;-80
2022/07/24 00:48:33;;;;;;;8.05;5.62;;;;;;;20.29;100.00;100581.98;1804679;79;21524;-80
2022/07/24 00:51:00;;;;;;;6.90;5.75;;;;;;;20.27;100.00;100581.28;1807980;79;21023;-80
2022/07/24 00:53:27;;;;;;;8.80;6.15;;;;;;;20.26;100.00;100581.77;1807452;79;21015;-81
2022/07/24 00:55:54;;;;;;;6.65;5.87;;;;;;;20.26;100.00;100581.77;1808559;79;21074;-81
2022/07/24 00:58:23;;;;;;;6.85;6.15;;;;;;;20.18;100.00;100578.48;1808212;79;21483;-81
2022/07/24 01:00:52;;;;;;;7.83;6.33;;;;;;;20.15;100.00;100577.45;1799510;79;21464;-80
2022/07/24 01:03:19;;;;;;;6.83;6.12;;;;;;;20.16;100.00;100577.78;1807048;78;22309;-82
2022/07/24 01:05:47;;;;;;;10.10;5.97;;;;;;;20.10;100.00;100587.92;1808832;79;21527;-79
2022/07/24 01:08:14;;;;;;;7.20;5.67;;;;;;;20.00;100.00;100598.30;1807511;79;21008;-80
2022/07/24 01:10:42;;;;;;;6.90;6.20;;;;;;;19.97;100.00;100605.08;1811501;79;21130;-81
2022/07/24 01:13:10;;;;;;;11.10;6.28;;;;;;;19.91;100.00;100602.97;1798906;79;21040;-79
2022/07/24 01:15:38;;;;;;;7.85;6.00;;;;;;;19.81;100.00;100601.61;1787823;79;21459;-80
2022/07/24 01:18:05;;;;;;;9.28;6.55;;;;;;;19.78;100.00;100595.31;1807968;79;21013;-81
2022/07/24 01:20:37;;;;;;;10.08;6.10;;;;;;;19.75;100.00;100592.96;1807853;79;20959;-80
2022/07/24 01:23:05;;;;;;;7.22;6.17;;;;;;;19.77;100.00;100591.88;1805658;79;21400;-80
2022/07/24 01:25:32;;;;;;;6.92;6.20;;;;;;;19.68;100.00;100595.19;1807988;79;21008;-79
2022/07/24 01:27:59;;;;;;;8.35;6.10;;;;;;;19.77;100.00;100591.05;1809341;79;20960;-81
2022/07/24 01:30:27;;;;;;;7.25;5.72;;;;;;;19.77;100.00;100592.36;1809061;79;20988;-80
2022/07/24 01:32:54;;;;;;;6.92;6.22;;;;;;;19.76;100.00;100591.51;1809359;78;21043;-78
2022/07/24 01:35:21;;;;;;;8.95;6.60;;;;;;;19.62;100.00;100581.33;1807622;79;21051;-82
2022/07/24 01:37:51;;;;;;;8.43;6.58;;;;;;;19.75;100.00;100577.30;1809278;79;21019;-80
2022/07/24 01:40:21;;;;;;;7.00;6.37;;;;;;;19.79;100.00;100586.05;1803601;79;21050;-79
2022/07/24 01:42:49;;;;;;;7.12;6.40;;;;;;;19.77;100.00;100587.96;1809285;79;21523;-81
2022/07/24 01:45:17;;;;;;;6.87;6.17;;;;;;;19.75;100.00;100592.48;1808179;79;21094;-78
2022/07/24 01:47:47;;;;;;;8.63;6.10;;;;;;;19.75;100.00;100591.17;1808375;79;21712;-81
2022/07/24 01:50:16;;;;;;;6.65;5.92;;;;;;;19.67;100.00;100583.56;1788045;79;20972;-80
2022/07/24 01:52:44;;;;;;;6.92;6.22;;;;;;;19.70;100.00;100580.71;1801075;79;21031;-80
2022/07/24 01:55:11;;;;;;;8.63;5.85;;;;;;;19.63;100.00;100585.61;1809776;79;20967;-80
2022/07/24 01:57:38;;;;;;;6.87;6.28;;;;;;;19.63;100.00;100588.22;1808845;79;20948;-79
2022/07/24 02:00:12;;;;;;;7.08;6.37;;;;;;;19.62;100.00;100584.76;1803449;79;21071;-79
2022/07/24 02:02:41;;;;;;;7.22;6.53;;;;;;;19.67;100.00;100591.39;1808172;79;20975;-80
2022/07/24 02:05:12;;;;;;;7.85;6.25;;;;;;;19.53;100.00;100586.00;1808270;79;20999;-78
2022/07/24 02:07:43;;;;;;;9.70;6.55;;;;;;;19.30;100.00;100578.69;1803402;79;20988;-80
2022/07/24 02:10:13;;;;;;;8.40;6.58;;;;;;;19.33;100.00;100577.16;1805530;79;21518;-80
2022/07/24 02:12:40;;;;;;;7.65;6.33;;;;;;;19.50;100.00;100581.02;1780615;80;21046;-79
2022/07/24 02:15:09;;;;;;;7.75;6.83;;;;;;;19.49;100.00;100584.59;1786979;80;21480;-80
2022/07/24 02:17:37;;;;;;;9.95;6.85;;;;;;;19.41;100.00;100585.20;1786557;80;21014;-79
2022/07/24 02:20:06;;;;;;;9.25;6.75;;;;;;;19.40;100.00;100592.66;1788298;80;21534;-80
2022/07/24 02:22:33;;;;;;;7.83;6.80;;;;;;;19.38;100.00;100586.73;1788370;80;20973;-80
2022/07/24 02:25:01;;;;;;;7.95;6.65;;;;;;;19.30;100.00;100594.34;1786464;80;21016;-81
2022/07/24 02:27:28;;;;;;;10.25;6.60;;;;;;;19.35;100.00;100586.52;1787629;80;21019;-80
2022/07/24 02:29:56;;;;;;;9.65;7.25;;;;;;;19.39;100.00;100597.06;1788500;80;21027;-80
2022/07/24 02:32:23;;;;;;;8.80;6.92;;;;;;;19.45;100.00;100588.41;1782408;79;21008;-80
2022/07/24 02:34:51;;;;;;;8.58;6.87;;;;;;;19.47;100.00;100589.11;1786631;79;21027;-80
2022/07/24 02:37:18;;;;;;;9.73;6.78;;;;;;;19.54;100.00;100590.26;1788589;80;21467;-80
2022/07/24 02:39:46;;;;;;;7.45;6.60;;;;;;;19.45;100.00;100584.48;1787224;80;21020;-80
2022/07/24 02:42:15;;;;;;;8.43;7.08;;;;;;;19.33;100.00;100581.07;1789511;80;21578;-78
2022/07/24 02:44:43;;;;;;;7.50;6.80;;;;;;;19.64;100.00;100579.42;1786581;80;21028;-79
2022/07/24 02:47:10;;;;;;;8.13;6.90;;;;;;;19.71;100.00;100585.03;1787653;80;21018;-80
2022/07/24 02:49:38;;;;;;;8.03;6.90;;;;;;;19.75;100.00;100587.25;1788800;78;21055;-81
2022/07/24 02:52:05;;;;;;;9.00;6.22;;;;;;;19.86;100.00;100590.77;1787317;80;21027;-80
2022/07/24 02:54:32;;;;;;;7.80;6.40;;;;;;;19.85;100.00;100593.02;1787026;80;21480;-80
2022/07/24 02:57:00;;;;;;;10.45;6.65;;;;;;;19.60;100.00;100594.98;1788504;80;20933;-81
2022/07/24 02:59:28;;;;;;;6.95;6.25;;;;;;;19.77;100.00;100591.88;1787575;80;21072;-79
2022/07/24 03:01:55;;;;;;;8.85;6.80;;;;;;;20.28;100.00;100596.84;1786773;79;21441;-80
2022/07/24 03:04:23;;;;;;;9.30;6.90;;;;;;;20.25;100.00;100610.64;1782616;80;21528;-80
2022/07/24 03:06:51;;;;;;;7.78;6.75;;;;;;;20.35;100.00;100612.35;1787655;80;20980;-80
2022/07/24 03:09:20;;;;;;;8.35;7.00;;;;;;;20.36;100.00;100614.02;1789170;80;20988;-80
2022/07/24 03:11:50;;;;;;;7.78;6.60;;;;;;;20.09;100.00;100612.38;1786036;79;20989;-80
2022/07/24 03:14:19;;;;;;;7.72;6.90;;;;;;;20.00;100.00;100615.28;1770678;80;21089;-80
2022/07/24 03:16:46;;;;;;;7.70;6.87;;;;;;;20.07;100.00;100615.61;1769659;81;20995;-79
2022/07/24 03:19:13;;;;;;;10.58;7.05;;;;;;;20.10;100.00;100610.96;1772365;80;22496;-81
2022/07/24 03:21:41;;;;;;;9.35;7.42;;;;;;;20.17;100.00;100612.12;1770344;81;20996;-81
2022/07/24 03:24:08;;;;;;;10.32;7.00;;;;;;;20.38;100.00;100619.13;1771380;81;21002;-80
2022/07/24 03:26:36;;;;;;;9.55;7.67;;;;;;;20.45;100.00;100614.20;1767514;81;21031;-79
2022/07/24 03:29:06;;;;;;;8.40;7.33;;;;;;;20.55;100.00;100618.52;1771608;80;21035;-80
2022/07/24 03:31:34;;;;;;;8.68;7.80;;;;;;;20.66;100.00;100622.90;1775121;81;21006;-80
2022/07/24 03:34:01;;;;;;;9.45;6.85;;;;;;;20.81;100.00;100628.60;1770524;81;21010;-81
2022/07/24 03:36:30;;;;;;;10.13;7.33;;;;;;;20.79;100.00;100635.75;1767038;81;21054;-81
2022/07/24 03:38:58;;;;;;;9.68;6.83;;;;;;;20.87;100.00;100632.48;1770336;81;21505;-80
2022/07/24 03:41:25;;;;;;;7.53;6.83;;;;;;;20.93;100.00;100628.86;1764039;81;21023;-80
2022/07/24 03:43:52;;;;;;;10.13;6.95;;;;;;;20.92;100.00;100625.06;1771759;81;21092;-81
2022/07/24 03:46:23;;;;;;;10.53;7.00;;;;;;;20.92;100.00;100627.19;1772634;81;21478;-80
2022/07/24 03:48:50;;;;;;;7.97;7.10;;;;;;;21.13;100.00;100626.32;1773313;81;21547;-80
2022/07/24 03:51:18;;;;;;;8.55;6.75;;;;;;;21.20;100.00;100626.12;1769225;81;21027;-80
2022/07/24 03:53:46;;;;;;;9.33;6.80;;;;;;;21.14;100.00;100627.47;1770665;80;21479;-81
2022/07/24 03:56:15;;;;;;;8.45;7.00;;;;;;;21.28;100.00;100634.63;1770376;80;21050;-80
2022/07/24 03:58:42;;;;;;;9.35;6.70;;;;;;;21.37;100.00;100631.17;1772692;81;21153;-80
2022/07/24 04:01:10;;;;;;;7.53;6.83;;;;;;;21.58;100.00;100633.75;1774841;81;21066;-77
2022/07/24 04:03:38;;;;;;;7.35;6.65;;;;;;;21.64;100.00;100630.58;1770809;81;21050;-80
2022/07/24 04:06:07;;;;;;;7.45;6.75;;;;;;;21.69;100.00;100640.64;1770317;80;21057;-81
2022/07/24 04:08:34;;;;;;;8.00;6.80;;;;;;;21.74;100.00;100639.77;1767664;81;21023;-81
2022/07/24 04:11:01;;;;;;;7.20;6.40;;;;;;;21.81;100.00;100640.37;1772283;80;21019;-81
2022/07/24 04:13:31;;;;;;;7.60;6.35;;;;;;;21.88;100.00;100638.50;1784278;79;21559;-80
2022/07/24 04:15:58;;;;;;;11.05;6.87;;;;;;;21.99;100.00;100644.94;1800562;79;20972;-80
2022/07/24 04:18:26;;;;;;;8.23;6.80;;;;;;;22.14;100.00;100646.18;1799424;79;21020;-79
2022/07/24 04:20:53;;;;;;;7.15;6.55;;;;;;;22.24;100.00;100647.98;1796897;79;21471;-82
2022/07/24 04:23:20;;;;;;;11.57;7.08;;;;;;;22.40;100.00;100651.70;1798612;79;21051;-80
2022/07/24 04:25:48;;;;;;;13.45;7.55;;;;;;;22.50;100.00;100662.64;1797523;79;21023;-80
2022/07/24 04:28:15;;;;;;;12.07;8.40;;;;;;;22.63;100.00;100660.55;1799458;79;20968;-80
2022/07/24 04:30:43;;;;;;;8.60;7.80;;;;;;;22.70;100.00;100655.06;1799239;78;20968;-82
2022/07/24 04:33:11;;;;;;;9.40;8.30;;;;;;;22.86;100.00;100646.58;1795495;79;20996;-79
2022/07/24 04:35:38;;;;;;;8.50;7.70;;;;;;;22.99;100.00;100650.19;1797998;79;21027;-80
2022/07/24 04:38:05;;;;;;;9.05;6.95;;;;;;;23.07;100.00;100649.49;1800762;79;21043;-81
2022/07/24 04:40:33;;;;;;;7.72;6.92;;;;;;;23.19;100.00;100649.17;1796469;79;21002;-80
2022/07/24 04:43:01;;;;;;;8.23;7.10;;;;;;;23.27;100.00;100643.66;1799864;78;20999;-80
2022/07/24 04:45:28;;;;;;;7.75;6.37;;;;;;;23.37;100.00;100649.69;1800592;79;21460;-78
2022/07/24 04:47:56;;;;;;;6.87;5.30;;;;;;;23.49;100.00;100652.94;1797040;79;21031;-79
2022/07/24 04:50:24;;;;;;;6.87;5.67;;;;;;;23.56;100.00;100660.08;1799363;78;20996;-80
2022/07/24 04:52:52;;;;;;;5.85;5.25;;;;;;;23.82;100.00;100659.86;1799186;79;21511;-79
2022/07/24 04:55:21;;;;;;;7.28;4.90;;;;;;;23.95;100.00;100666.89;1796397;79;21020;-80
2022/07/24 04:57:49;;;;;;;5.30;4.80;;;;;;;24.07;100.00;100664.36;1796014;79;21011;-79
2022/07/24 05:00:18;;;;;;;5.08;4.42;;;;;;;;;;1777833;79;20944;-81
2022/07/24 05:02:47;;;;;;;5.72;4.97;;;;;;;24.45;100.00;100670.22;1798702;79;21485;-79
2022/07/24 05:05:14;;;;;;;5.92;4.30;;;;;;;24.52;100.00;100667.84;1799302;79;21024;-80
2022/07/24 05:07:43;;;;;;;4.20;3.50;;;;;;;24.59;100.00;100672.34;1800474;79;20968;-81
2022/07/24 05:10:12;;;;;;;6.40;4.00;;;;;;;24.66;100.00;100675.17;1798967;79;21036;-80
2022/07/24 05:12:40;;;;;;;6.78;4.15;;;;;;;24.80;100.00;100673.77;1796151;79;21038;-78
2022/07/24 05:15:09;;;;;;;4.55;3.85;;;;;;;24.99;100.00;100678.80;1807488;79;20999;-81
2022/07/24 05:17:39;;;;;;;5.42;3.85;;;;;;;25.05;100.00;100681.80;1810160;79;21475;-82
2022/07/24 05:20:08;;;;;;;4.35;3.72;;;;;;;25.13;100.00;100686.59;1808380;79;21030;-81
2022/07/24 05:22:37;;;;;;;4.62;4.03;;;;;;;25.23;100.00;100677.28;1810188;79;21049;-82
2022/07/24 05:25:06;;;;;;;5.70;3.90;;;;;;;25.31;100.00;100677.31;1809258;79;21003;-80
2022/07/24 05:27:34;;;;;;;4.20;3.67;;;;;;;25.45;100.00;100679.02;1803913;79;21565;-80
2022/07/24 05:30:01;;;;;;;5.37;4.20;;;;;;;25.54;100.00;100681.48;1805961;79;21008;-81
2022/07/24 05:32:28;;;;;;;5.95;4.28;;;;;;;25.70;100.00;100683.34;1808967;79;21023;-80
2022/07/24 05:34:56;;;;;;;4.20;3.80;;;;;;;25.77;100.00;100684.82;1802550;79;21072;-80
2022/07/24 05:37:23;;;;;;;4.58;4.17;;;;;;;26.00;100.00;100689.52;1810037;79;21514;-80
2022/07/24 05:39:52;;;;;;;6.08;4.15;;;;;;;26.00;100.00;100689.52;1802676;79;21427;-81
2022/07/24 05:42:19;;;;;;;4.67;4.25;;;;;;;26.46;100.00;100691.13;1809535;79;21050;-80
2022/07/24 05:44:47;;;;;;;6.33;4.35;;;;;;;26.46;100.00;100691.13;1808990;78;21031;-79
2022/07/24 05:47:14;;;;;;;4.90;4.40;;;;;;;26.46;100.00;100693.30;1803635;79;21011;-82
2022/07/24 05:49:41;;;;;;;6.25;4.85;;;;;;;26.57;100.00;100689.00;1807877;79;20965;-80
2022/07/24 05:52:08;;;;;;;5.53;4.30;;;;;;;26.78;100.00;100686.31;1804780;79;20999;-81
2022/07/24 05:54:37;;;;;;;5.75;4.30;;;;;;;26.85;100.00;100681.20;1807826;79;21027;-82
2022/07/24 05:57:04;;;;;;;6.05;4.12;;;;;;;26.75;100.00;100687.48;1807469;79;21510;-82
2022/07/24 05:59:32;;;;;;;4.35;3.95;;;;;;;26.90;100.00;100688.92;1809079;79;21034;-82
2022/07/24 06:02:03;;;;;;;6.53;3.90;;;;;;;26.83;100.00;100684.51;1799428;79;21061;-80
2022/07/24 06:04:30;;;;;;;7.58;3.80;;;;;;;27.00;100.00;100683.44;1808462;79;21027;-81
2022/07/24 06:06:58;;;;;;;4.50;3.90;;;;;;;27.08;100.00;100681.27;1799838;78;21106;-77
2022/07/24 06:09:26;;;;;;;7.47;3.85;;;;;;;27.29;100.00;100682.88;1808834;79;20964;-81
2022/07/24 06:11:54;;;;;;;5.83;3.80;;;;;;;27.12;100.00;100683.90;1811406;79;21035;-79
2022/07/24 06:14:24;;;;;;;6.42;4.20;;;;;;;27.05;100.00;100681.60;1807876;79;20988;-82
2022/07/24 06:16:52;;;;;;;6.03;4.25;;;;;;;27.11;99.48;100678.27;1811413;79;21117;-79
2022/07/24 06:19:21;;;;;;;8.33;4.42;;;;;;;27.02;100.00;100676.67;1811306;79;21064;-81
2022/07/24 06:21:49;;;;;;;5.55;4.30;;;;;;;27.07;100.00;100676.49;1811572;79;21043;-81
2022/07/24 06:24:16;;;;;;;7.30;5.00;;;;;;;27.21;100.00;100670.14;1812024;79;21495;-79
2022/07/24 06:26:43;;;;;;;9.33;6.80;;;;;;;27.33;100.00;100667.47;1811655;79;21016;-81
2022/07/24 06:29:10;;;;;;;8.68;7.47;;;;;;;27.42;100.00;100661.66;1812119;79;20967;-80
2022/07/24 06:31:38;;;;;;;11.75;8.55;;;;;;;27.41;100.00;100660.81;1811632;79;20999;-80
2022/07/24 06:34:05;;;;;;;13.60;9.90;;;;;;;27.45;100.00;100656.00;1811815;79;21061;-81
2022/07/24 06:36:33;;;;;;;13.22;10.18;;;;;;;27.49;100.00;100649.37;1811569;79;21154;-81
2022/07/24 06:39:00;;;;;;;15.83;11.40;;;;;;;27.51;100.00;100650.02;1811811;79;21066;-81
2022/07/24 06:41:27;;;;;;;15.55;9.25;;;;;;;27.61;100.00;100652.44;1776111;81;21523;-81
2022/07/24 06:43:54;;;;;;;14.33;10.75;;;;;;;27.52;98.25;100647.71;1775967;81;21126;-80
2022/07/24 06:46:22;;;;;;;12.78;10.88;;;;;;;27.55;99.15;100646.02;1774983;81;21051;-80
2022/07/24 06:48:49;;;;;;;12.85;9.53;;;;;;;27.55;100.00;100643.38;1775144;80;21102;-81
2022/07/24 06:51:17;;;;;;;12.82;9.55;;;;;;;27.76;100.00;100646.22;1775086;81;22279;-80
2022/07/24 06:53:46;;;;;;;14.53;10.70;;;;;;;27.80;99.07;100645.84;1775437;81;21098;-78
2022/07/24 06:56:13;;;;;;;12.28;9.18;;;;;;;27.70;99.16;100650.89;1774941;80;21067;-80
2022/07/24 06:58:42;;;;;;;14.33;9.60;;;;;;;27.73;96.43;100646.55;1774762;81;21047;-81
2022/07/24 07:01:10;;;;;;;11.43;7.87;;;;;;;27.76;98.40;100646.72;1774790;80;21114;-80
2022/07/24 07:03:38;;;;;;;7.72;6.90;;;;;;;27.85;97.56;100639.53;1775138;81;21106;-80
2022/07/24 07:06:08;;;;;;;11.83;7.28;;;;;;;28.00;95.63;100639.09;1774874;80;21098;-80
2022/07/24 07:08:36;;;;;;;11.60;8.03;;;;;;;28.08;94.09;100643.02;1751558;81;21491;-80
2022/07/24 07:11:04;;;;;;;10.43;6.42;;;;;;;28.20;94.22;100637.27;1751684;81;21019;-79
2022/07/24 07:13:32;;;;;;;8.93;6.75;;;;;;;28.33;94.08;100638.81;1745438;82;21047;-81
2022/07/24 07:16:00;;;;;;;9.15;6.40;;;;;;;28.53;90.90;100643.92;1742096;82;21050;-80
2022/07/24 07:18:27;;;;;;;6.62;5.12;;;;;;;28.67;89.26;100644.09;1776177;81;21554;-80
2022/07/24 07:20:55;;;;;;;10.80;5.40;;;;;;;28.58;90.55;100647.34;1741317;82;20988;-80
2022/07/24 07:23:24;;;;;;;6.97;5.17;;;;;;;28.50;87.50;100642.95;1773257;81;21008;-80
2022/07/24 07:25:54;;;;;;;12.55;6.62;;;;;;;28.48;92.54;100638.30;1743856;82;21083;-80
2022/07/24 07:28:22;;;;;;;7.75;6.40;;;;;;;28.52;88.94;100640.13;1742674;82;21008;-81
2022/07/24 07:30:49;;;;;;;9.10;6.70;;;;;;;28.48;91.29;100633.01;1742347;82;21048;-80
2022/07/24 07:33:17;;;;;;;8.18;5.87;;;;;;;28.65;91.21;100638.16;1742517;82;21063;-80
2022/07/24 07:35:53;;;;;;;9.45;6.45;;;;;;;28.72;90.17;100631.13;1741536;82;21618;-80
2022/07/24 07:38:21;;;;;;;11.45;5.92;;;;;;;28.87;91.66;100627.95;1742246;81;21083;-80
2022/07/24 07:43:30;;;;;;;8.55;6.35;;;;;;;29.04;87.30;100627.77;1745154;82;21480;-80
2022/07/24 07:46:03;;;;;;;9.48;7.08;;;;;;;29.04;88.33;100625.12;1774918;81;21000;-81
2022/07/24 07:48:37;;;;;;;8.25;6.40;;;;;;;29.05;85.25;100629.39;1729192;81;21057;-81
2022/07/24 07:51:06;;;;;;;10.15;7.00;;;;;;;29.08;84.25;100630.36;1775460;81;21035;-79
2022/07/24 07:53:33;;;;;;;10.10;7.08;;;;;;;29.20;86.34;100630.23;1775135;81;21069;-79
2022/07/24 07:56:02;;;;;;;11.60;7.28;;;;;;;29.44;85.03;100636.17;1774713;81;21062;-78
2022/07/24 07:58:29;;;;;;;9.43;7.20;;;;;;;29.46;86.26;100630.17;1775586;80;21019;-80
2022/07/24 08:00:57;;;;;;;9.70;6.42;;;;;;;29.63;84.88;100634.74;1742192;80;21059;-80
2022/07/24 08:03:24;;;;;;;8.20;6.28;;;;;;;29.71;82.41;100630.15;1741918;82;21075;-80
2022/07/24 08:05:51;;;;;;;9.50;6.20;;;;;;;29.77;78.83;100627.25;1742228;80;21130;-82
2022/07/24 08:08:18;;;;;;;8.33;6.22;;;;;;;29.64;76.69;100638.51;1776300;81;21012;-81
2022/07/24 08:10:46;;;;;;;9.25;6.22;;;;;;;29.53;78.26;100628.42;1741909;82;21562;-81
2022/07/24 08:13:14;;;;;;;7.62;6.05;;;;;;;29.60;79.70;100625.82;1728631;82;21023;-78
2022/07/24 08:15:42;;;;;;;5.90;5.30;;;;;;;29.73;78.53;100623.33;1756486;81;21059;-81
2022/07/24 08:18:09;;;;;;;7.33;4.62;;;;;;;29.73;79.16;100614.86;1787157;79;21055;-82
2022/07/24 08:20:36;;;;;;;5.03;4.62;;;;;;;29.70;74.29;100626.32;1821356;78;21485;-81
2022/07/24 08:23:04;;;;;;;4.75;3.92;;;;;;;29.80;69.87;100620.22;1788802;79;21073;-81
2022/07/24 08:25:32;;;;;;;4.70;4.20;;;;;;;29.82;68.49;100621.36;1813148;79;21014;-82
2022/07/24 08:28:00;;;;;;;4.47;3.90;;;;;;;29.97;68.08;100608.84;1801865;79;21542;-81
2022/07/24 08:30:29;;;;;;;5.12;3.33;;;;;;;29.99;67.96;100616.58;1805460;79;21061;-81
2022/07/24 08:32:56;;;;;;;4.10;3.55;;;;;;;30.14;66.03;100614.15;1801310;79;21012;-80
2022/07/24 08:35:23;;;;;;;4.50;4.10;;;;;;;30.27;65.34;100620.56;1784115;79;21108;-83
2022/07/24 08:37:51;;;;;;;4.33;3.87;;;;;;;30.18;66.85;100618.58;1776452;80;21115;-83
2022/07/24 08:40:19;;;;;;;4.42;4.10;;;;;;;30.35;64.91;100618.62;1809992;79;21470;-77
2022/07/24 08:42:46;;;;;;;8.23;3.72;;;;;;;30.46;64.46;100617.77;1776624;80;21009;-80
2022/07/24 08:45:15;;;;;;;4.17;3.77;;;;;;;30.72;62.25;100619.73;1805831;79;21006;-82
2022/07/24 08:47:42;;;;;;;5.22;3.80;;;;;;;30.88;62.09;100614.11;1798933;80;21012;-79
2022/07/24 08:50:10;;;;;;;4.95;3.80;;;;;;;30.94;61.12;100626.61;1807252;79;21026;-81
2022/07/24 08:52:39;;;;;;;4.67;3.83;;;;;;;31.06;61.70;100622.03;1804366;79;21047;-83
2022/07/24 08:55:07;;;;;;;4.55;4.00;;;;;;;31.05;60.66;100619.89;1803504;79;21471;-80
2022/07/24 08:57:35;;;;;;;4.83;4.40;;;;;;;31.33;59.90;100622.42;1779747;80;20984;-82
2022/07/24 09:00:03;;;;;;;5.53;5.03;;;;;;;31.01;60.21;100620.49;1795169;79;21539;-81
2022/07/24 09:02:30;;;;;;;6.55;4.17;;;;;;;31.08;60.01;100620.83;1799230;79;20972;-81
2022/07/24 09:05:01;;;;;;;4.67;4.28;;;;;;;31.04;61.22;100614.25;1776378;79;21067;-83
2022/07/24 09:07:30;;;;;;;4.40;4.00;;;;;;;30.99;59.25;100623.34;1798750;78;21082;-83
2022/07/24 09:10:04;;;;;;;4.62;4.20;;;;;;;30.86;57.68;100614.79;1802427;79;21506;-81
2022/07/24 09:12:38;;;;;;;5.53;4.15;;;;;;;31.07;56.69;100611.72;1802293;79;21020;-82
2022/07/24 09:15:18;;;;;;;5.45;4.70;;;;;;;31.45;59.14;100605.88;1821347;79;21023;-83
2022/07/24 09:17:57;;;;;;;4.50;4.10;;;;;;;31.40;59.13;100617.63;1816165;77;21018;-82
2022/07/24 09:20:28;;;;;;;5.28;3.90;;;;;;;31.56;58.94;100612.46;1806751;78;21023;-82
2022/07/24 09:22:57;;;;;;;5.25;4.30;;;;;;;31.28;59.03;100616.87;1778102;79;21052;-83
2022/07/24 09:25:28;;;;;;;5.10;4.70;;;;;;;31.10;58.04;100612.63;1798933;79;20984;-82
2022/07/24 09:27:59;;;;;;;7.28;4.55;;;;;;;31.10;58.94;100606.83;1798585;80;21000;-81
2022/07/24 09:30:37;;;;;;;5.55;4.78;;;;;;;31.46;60.30;100597.70;1798787;80;20992;-81
2022/07/24 09:33:15;;;;;;;8.80;4.90;;;;;;;31.52;58.06;100598.73;1799663;79;21588;-80
2022/07/24 09:35:49;;;;;;;5.25;4.22;;;;;;;31.60;58.23;100603.86;1818756;79;21561;-82
2022/07/24 09:38:21;;;;;;;7.60;4.95;;;;;;;31.53;58.62;100595.88;1780094;79;20999;-83
2022/07/24 09:40:56;;;;;;;6.45;4.50;;;;;;;31.59;60.10;100605.38;1804028;79;21593;-78
2022/07/24 09:43:32;;;;;;;5.45;4.92;;;;;;;31.64;59.20;100594.44;1781678;79;20987;-83
2022/07/24 09:46:09;;;;;;;5.72;4.80;;;;;;;31.48;58.28;100601.49;1803983;78;21087;-82
2022/07/24 09:48:56;;;;;;;8.05;5.47;;;;;;;31.60;59.18;100598.53;1804488;79;21014;-81
2022/07/24 09:51:27;;;;;;;5.97;5.37;;;;;;;31.80;60.02;100588.41;1804193;78;20991;-82
2022/07/24 09:53:58;;;;;;;6.40;5.22;;;;;;;32.16;58.21;100582.66;1804202;78;21463;-81
2022/07/24 09:56:27;;;;;;;7.03;5.10;;;;;;;31.80;59.51;100593.73;1781230;79;21023;-80
2022/07/24 09:58:59;;;;;;;6.50;5.20;;;;;;;31.46;60.20;100584.91;1781449;78;20987;-82
2022/07/24 10:01:28;;;;;;;5.67;5.17;;;;;;;31.16;60.90;100583.91;1804213;79;21163;-82
2022/07/24 10:03:58;;;;;;;5.30;4.65;;;;;;;31.29;61.51;100589.27;1804082;79;21034;-81
2022/07/24 10:06:27;;;;;;;6.12;4.40;;;;;;;31.27;59.39;100583.33;1804077;79;21019;-81
2022/07/24 10:08:56;;;;;;;5.17;4.47;;;;;;;31.53;56.40;100579.91;1804163;78;21062;-81
2022/07/24 10:11:23;;;;;;;4.75;4.33;;;;;;;31.90;56.06;100580.31;1803308;79;20999;-81
2022/07/24 10:13:52;;;;;;;4.90;3.85;;;;;;;32.14;55.10;100580.72;1803240;79;21042;-81
2022/07/24 10:16:31;;;;;;;7.28;5.90;;;;;;;32.19;52.17;100580.09;1803733;79;21007;-81
2022/07/24 10:19:04;;;;;;;6.05;5.20;;;;;;;32.09;53.27;100579.99;1782056;79;20995;-82
2022/07/24 10:21:38;;;;;;;6.87;4.83;;;;;;;32.40;56.48;100579.84;1804122;79;21034;-81
2022/07/24 10:24:14;;;;;;;5.50;4.85;;;;;;;32.16;54.72;100581.33;1804008;78;20990;-81
2022/07/24 10:26:49;;;;;;;5.25;4.25;;;;;;;32.13;55.99;100572.41;1804007;79;21050;-81
2022/07/24 10:29:21;;;;;;;4.50;4.10;;;;;;;32.17;50.67;100574.97;1804237;79;21034;-81
2022/07/24 10:31:58;;;;;;;4.60;4.20;;;;;;;32.29;51.03;100576.48;1804063;79;20987;-82
2022/07/24 10:34:53;;;;;;;4.60;4.20;;;;;;;32.06;50.15;100563.11;1804110;79;21069;-81
2022/07/24 10:37:39;;;;;;;4.58;4.17;;;;;;;32.46;50.18;100567.01;1803737;78;20995;-80
2022/07/24 10:40:34;;;;;;;5.65;4.75;;;;;;;32.67;50.42;100566.44;1803741;78;21082;-82
2022/07/24 10:43:11;;;;;;;4.60;4.20;;;;;;;32.14;52.72;100572.21;1781615;79;21058;-82
2022/07/24 10:45:43;;;;;;;5.35;4.40;;;;;;;31.86;53.83;100575.61;1804502;79;21495;-83
2022/07/24 10:48:26;;;;;;;5.08;4.25;;;;;;;31.94;54.45;100564.23;1804786;79;21019;-83
2022/07/24 10:51:10;;;;;;;4.87;4.03;;;;;;;32.10;52.71;100557.68;1804523;79;20995;-82
2022/07/24 10:53:42;;;;;;;5.35;4.47;;;;;;;32.20;51.33;100561.25;1804533;79;21495;-81
2022/07/24 10:56:21;;;;;;;5.00;4.58;;;;;;;32.23;53.53;100557.34;1804442;79;21077;-83
2022/07/24 10:58:59;;;;;;;5.10;4.60;;;;;;;31.71;53.07;100559.34;1804123;79;21003;-83
2022/07/24 11:01:50;;;;;;;5.12;4.50;;;;;;;32.07;53.24;100558.59;1804335;79;21170;-83
2022/07/24 11:04:23;;;;;;;9.50;7.75;;;;;;;32.24;51.48;100553.63;1782358;79;21551;-82
2022/07/24 11:07:09;;;;;;;5.50;4.50;;;;;;;32.40;51.49;100547.03;1804462;79;21543;-83
2022/07/24 11:10:07;;;;;;;4.62;4.15;;;;;;;32.38;50.71;100548.56;1804313;79;21514;-82
2022/07/24 11:12:43;;;;;;;7.35;4.83;;;;;;;32.38;49.80;100545.90;1796793;79;20964;-81
2022/07/24 11:18:15;;;;;;;5.75;4.60;;;;;;;32.59;51.37;100543.50;1780067;80;21121;-81
2022/07/24 11:20:43;;;;;;;5.42;4.47;;;;;;;32.45;51.13;100522.73;1780045;81;21559;-83
2022/07/24 11:23:20;;;;;;;4.70;4.28;;;;;;;32.32;51.68;100526.27;1780237;80;21491;-81
2022/07/24 11:25:48;;;;;;;7.33;3.80;;;;;;;32.44;52.09;100522.44;1794854;79;21523;-83
2022/07/24 11:28:15;;;;;;;6.45;4.20;;;;;;;32.31;50.08;100519.81;1808198;79;20995;-82
2022/07/24 11:30:45;;;;;;;5.33;3.70;;;;;;;32.42;49.90;100511.66;1806095;79;20992;-81
2022/07/24 11:33:16;;;;;;;8.48;5.30;;;;;;;32.42;47.46;100509.84;1788749;79;21550;-78
2022/07/24 11:35:44;;;;;;;5.58;5.00;;;;;;;32.54;50.18;100508.64;1769031;79;21114;-78